»·PEaware :: SWA634 KLAS-KSNA

SWA634 :: KLAS-KSNA

FLIGHT INFORMATION

Flight Status: Arrived
Operator:
Southwest Airlines
More flights by this operator :: More flights under this callsign
Pilot: Ben F. (2808)
Aircraft: BOEING 737-300
(B733)
More flights by this aircraft type
Origin: KLAS McCarran Intl
United States
Destination: KSNA John Wayne-Orange Co
United States
More flights between these airports :: More routes between these airports
Route: BOACH8 WHIGG FEYLA DSNEE4
File this flight plan on PilotEdge
Remarks:
Altitude:
(Current/Filed)
28,000ft
Speed:
(Current/Filed)
451kts
Departed: 02-Nov-18 08:07 AM
Arrived: 02-Nov-18 08:46 AM
Distance/Time
Traveled:
197nm/0:39
Distance/Time
To Go:
Arrived

Flight Plot

Page will automatically refresh every two minutes.

Flight plan parsing failed; only flown route is shown


Map Options




Map Legend


Flown Route
Filed Route
Departure Airport
Arrival Airport
Navaid (VOR, NDB)
Fix

Horizontal Profiles

Position Reports

Time Latitude Longitude Heading Altitude Ground
Speed
02-Nov-18 07:50 36.079781 -115.146272 342 2148ft 0kts
02-Nov-18 07:51 36.079781 -115.146272 342 2148ft 0kts
02-Nov-18 07:52 36.079781 -115.146272 342 2148ft 0kts
02-Nov-18 07:53 36.079781 -115.146272 342 2148ft 0kts
02-Nov-18 07:54 36.079781 -115.146272 342 2148ft 0kts
02-Nov-18 07:55 36.079781 -115.146272 342 2148ft 0kts
02-Nov-18 07:56 36.079781 -115.146272 342 2148ft 0kts
02-Nov-18 07:57 36.079583 -115.146159 348 2148ft 2kts
02-Nov-18 07:58 36.079281 -115.145601 262 2148ft 2kts
02-Nov-18 07:59 36.079364 -115.144949 220 2148ft 2kts
02-Nov-18 08:00 36.079571 -115.144875 179 2148ft 0kts
02-Nov-18 08:01 36.079570 -115.144875 179 2148ft 0kts
02-Nov-18 08:02 36.078939 -115.144901 179 2148ft 0kts
02-Nov-18 08:03 36.078230 -115.142104 90 2148ft 20kts
02-Nov-18 08:04 36.078244 -115.134858 89 2148ft 21kts
02-Nov-18 08:05 36.078268 -115.127493 89 2148ft 21kts
02-Nov-18 08:06 36.077351 -115.121428 153 2148ft 0kts
02-Nov-18 08:07 36.077347 -115.121426 154 2148ft 0kts
02-Nov-18 08:08 36.076771 -115.121334 188 2148ft 8kts
02-Nov-18 08:09 36.076405 -115.141749 270 2149ft 159kts
02-Nov-18 08:10 36.077081 -115.207285 269 3671ft 221kts
02-Nov-18 08:11 36.037961 -115.270109 199 5599ft 275kts
02-Nov-18 08:12 35.965903 -115.302193 190 8679ft 283kts
02-Nov-18 08:13 35.884432 -115.311891 187 10893ft 317kts
02-Nov-18 08:14 35.791957 -115.307683 175 12940ft 354kts
02-Nov-18 08:15 35.689983 -115.300831 196 15040ft 381kts
02-Nov-18 08:16 35.611439 -115.384290 231 17468ft 384kts
02-Nov-18 08:17 35.538729 -115.482336 231 19766ft 395kts
02-Nov-18 08:18 35.463752 -115.583210 232 21823ft 407kts
02-Nov-18 08:20 35.376009 -115.701473 232 24017ft 417kts
02-Nov-18 08:20 35.310426 -115.789672 232 25508ft 425kts
02-Nov-18 08:21 35.230201 -115.897128 232 27189ft 434kts
02-Nov-18 08:22 35.145772 -116.003837 231 28285ft 446kts
02-Nov-18 08:23 35.059562 -116.112426 231 28263ft 443kts
02-Nov-18 08:24 34.973602 -116.220431 230 28267ft 450kts
02-Nov-18 08:25 34.887628 -116.328030 230 28230ft 458kts
02-Nov-18 08:26 34.800589 -116.438253 230 28238ft 457kts
02-Nov-18 08:27 34.714092 -116.548255 230 26273ft 446kts
02-Nov-18 08:28 34.621112 -116.645425 222 23719ft 436kts
02-Nov-18 08:29 34.534987 -116.729611 221 21692ft 409kts
02-Nov-18 08:30 34.454271 -116.817482 227 20799ft 375kts
02-Nov-18 08:31 34.374847 -116.909876 226 18798ft 397kts
02-Nov-18 08:32 34.296139 -117.000654 225 15656ft 389kts
02-Nov-18 08:34 34.211660 -117.073663 211 13867ft 369kts
02-Nov-18 08:35 34.123371 -117.128483 203 12142ft 351kts
02-Nov-18 08:36 34.037631 -117.174253 203 12052ft 319kts
02-Nov-18 08:37 33.967773 -117.236062 230 11449ft 318kts
02-Nov-18 08:38 33.912622 -117.313995 230 9767ft 294kts
02-Nov-18 08:39 33.863660 -117.382956 230 8672ft 274kts
02-Nov-18 08:40 33.817323 -117.450821 244 7968ft 256kts
02-Nov-18 08:41 33.798838 -117.529086 289 7658ft 222kts
02-Nov-18 08:42 33.818000 -117.598427 292 6501ft 217kts
02-Nov-18 08:43 33.838833 -117.664024 293 5114ft 215kts
02-Nov-18 08:44 33.857309 -117.731738 259 3619ft 215kts
02-Nov-18 08:45 33.818773 -117.778836 209 3030ft 186kts
02-Nov-18 08:46 33.776106 -117.805202 207 2181ft 156kts
02-Nov-18 08:47 33.738523 -117.828977 208 1344ft 149kts
02-Nov-18 08:48 33.702345 -117.852119 206 590ft 149kts
02-Nov-18 08:49 33.670582 -117.872077 206 63ft 33kts
02-Nov-18 08:50 33.669102 -117.871601 122 63ft 0kts
02-Nov-18 08:51 33.669095 -117.871587 122 63ft 0kts
02-Nov-18 08:52 33.669095 -117.871587 122 63ft 0kts
02-Nov-18 08:53 33.669095 -117.871587 122 63ft 0kts
02-Nov-18 08:54 33.669095 -117.871587 122 63ft 0kts
02-Nov-18 08:55 33.669095 -117.871587 122 63ft 0kts

Navigation Log

Ident Type
Flight plan parsing failed, navigation log unavailable